98NY weather

Krenzers Airport
West Bloomfield, New York, United States

Public forecast

Using degrees Fahrenheit for public forecast. Weather courtesy of forecast.io.

METAR (pilot weather report)

Closest report is Greater Rochester International Airport, 15.4 nm (28.5 km) NNW. Retrieved 2019/05/20 08:54 UTC (10 minutes ago):

KROC 200854Z 21008KT 10SM BKN032 OVC047 19/15 A2971 RMK AO2 SLP060 BINOVC T01940150 55005

TAF (pilot weather forecast)

Closest forecast is Greater Rochester International Airport, 15.4 nm (28.5 km) NNW. Retrieved 2019/05/20 06:33 UTC (3 hours ago):

TAF KROC 200531Z 2006/2106 21009KT P6SM OVC070 FM201100 24011G17KT P6SM VCSH BKN050 FM201500 25017G25KT P6SM VCSH BKN040 FM201800 25021G38KT P6SM BKN040 FM202300 27019G29KT P6SM BKN030